Archival Weather

Chicago O'Hare International

Chicago, Illinois (KORD)

Report from: Monday, January 23, 2023 2:15 AM CST
Current time: Thursday, July 18, 2024 10:12 PM CDT

Current weather – Weather history – Daily summaries
Weather forecast

Present weatherLight snow, mist
Temperature-5.0°C (23.0°F)
Wind chill-9.0°C (15.7°F)
Dew point-6.7°C (19.9°F)
Winds 5 kts (2.6 m/s, 5.8 mph) Northwest (320°)
Visibility1.8 mi. (2.8 km)
Clouds Ceiling: Overcast 500 ft. (152 m)
Altimeter29.99 in.Hg (1016 mB)
PrecipitiationTrace
Precip. events Drizzle ended 7:56 AM
Relative humidity88 %
Density altitude-2,493 ft. (-760 m)
Remarks System requires maintenance
Automated weather observing station with precipitation discriminator
Visibility south southwest
Flight conditions Instrument Meteorological Conditions
Raw dataKORD 230815Z 32005KT 1 3/4SM -SN BR OVC005 M05/M07 A2999 RMK AO2 FZDZE0756 VIS S-SW 3/4 P0000 I1000 T10501067 $
An error has occurred. This application may no longer respond until reloaded. Reload 🗙